Time;durP1;ratioP1;P1;durP2;ratioP2;P2;SDS_P1;SDS_P2;PMS_P1;PMS_P2;Temp;Humidity;BMP_temperature;BMP_pressure;BME280_temperature;BME280_humidity;BME280_pressure;Samples;Min_cycle;Max_cycle;Signal;HPM_P1;HPM_P2
2023/05/14 00:02:21;;;;;;;9.93;6.18;;;16.70;69.00;;;;;;5036888;28;20017;-86
2023/05/14 00:04:47;;;;;;;9.40;5.82;;;16.70;69.10;;;;;;5053298;28;20036;-86
2023/05/14 00:07:13;;;;;;;9.07;6.47;;;16.60;69.10;;;;;;5036955;28;20423;-86
2023/05/14 00:09:38;;;;;;;9.80;7.53;;;16.60;69.30;;;;;;5053930;28;20033;-85
2023/05/14 00:12:04;;;;;;;12.00;6.40;;;16.50;69.50;;;;;;5053625;28;20032;-87
2023/05/14 00:14:30;;;;;;;11.60;6.88;;;16.40;69.60;;;;;;5052808;28;20048;-86
2023/05/14 00:16:57;;;;;;;10.07;6.57;;;16.30;69.70;;;;;;5054373;28;20029;-85
2023/05/14 00:19:22;;;;;;;10.32;6.95;;;16.30;70.10;;;;;;5052979;28;20024;-84
2023/05/14 00:21:48;;;;;;;9.80;6.88;;;16.30;70.20;;;;;;5036645;28;20024;-86
2023/05/14 00:24:14;;;;;;;11.70;7.85;;;16.20;70.50;;;;;;5054079;28;20075;-87
2023/05/14 00:26:39;;;;;;;10.63;6.93;;;16.20;70.60;;;;;;5052514;28;20472;-86
2023/05/14 00:29:05;;;;;;;13.30;7.35;;;16.10;70.60;;;;;;5052958;28;20033;-84
2023/05/14 00:31:31;;;;;;;10.50;6.97;;;16.00;70.80;;;;;;5036278;28;20025;-85
2023/05/14 00:33:56;;;;;;;11.57;6.88;;;15.90;70.80;;;;;;5035599;28;20055;-85
2023/05/14 00:36:22;;;;;;;12.52;7.57;;;15.90;71.00;;;;;;5035848;28;20032;-85
2023/05/14 00:38:48;;;;;;;12.18;6.63;;;15.90;71.00;;;;;;5019175;28;20323;-84
2023/05/14 00:41:14;;;;;;;10.90;7.82;;;15.80;71.20;;;;;;5035792;28;20056;-84
2023/05/14 00:43:39;;;;;;;12.20;8.25;;;15.80;71.50;;;;;;5035817;28;20063;-86
2023/05/14 00:46:05;;;;;;;14.60;7.88;;;15.70;71.60;;;;;;5053583;28;20085;-83
2023/05/14 00:48:31;;;;;;;14.32;8.23;;;15.60;71.70;;;;;;5052314;28;20475;-85
2023/05/14 00:50:57;;;;;;;12.25;7.63;;;15.60;72.20;;;;;;5052342;28;20025;-85
2023/05/14 00:53:22;;;;;;;10.85;7.43;;;15.50;72.10;;;;;;5051969;28;20017;-85
2023/05/14 00:55:49;;;;;;;14.23;8.35;;;15.50;72.60;;;;;;5036008;28;20089;-84
2023/05/14 00:58:16;;;;;;;15.75;7.95;;;15.50;72.70;;;;;;5036070;28;20516;-85
2023/05/14 01:00:42;;;;;;;15.05;8.60;;;15.50;73.40;;;;;;5054673;28;20021;-85
2023/05/14 01:03:07;;;;;;;10.50;7.78;;;15.40;73.30;;;;;;5054400;28;20025;-84
2023/05/14 01:05:55;;;;;;;12.77;7.20;;;15.40;73.40;;;;;;5051307;28;20040;-84
2023/05/14 01:08:27;;;;;;;13.85;7.85;;;15.40;73.30;;;;;;5053555;28;20722;-85
2023/05/14 01:11:17;;;;;;;13.30;7.65;;;15.30;73.30;;;;;;5052636;28;20021;-87
2023/05/14 01:14:02;;;;;;;13.70;7.82;;;15.40;73.60;;;;;;5053134;28;20457;-87
2023/05/14 01:16:31;;;;;;;12.32;7.20;;;15.30;73.60;;;;;;5052959;28;20023;-87
2023/05/14 01:18:58;;;;;;;11.85;7.72;;;15.30;73.60;;;;;;5054119;28;20013;-88
2023/05/14 01:21:39;;;;;;;12.05;7.78;;;15.20;73.70;;;;;;5052534;28;20071;-88
2023/05/14 01:24:06;;;;;;;11.80;7.95;;;15.20;74.00;;;;;;5054238;28;20031;-88
2023/05/14 01:26:32;;;;;;;14.38;8.18;;;15.20;74.00;;;;;;5053660;28;20036;-84
2023/05/14 01:29:14;;;;;;;13.23;8.45;;;15.20;74.30;;;;;;5052324;28;20036;-89
2023/05/14 01:31:44;;;;;;;12.18;7.60;;;15.20;74.70;;;;;;5052251;28;20028;-86
2023/05/14 01:34:11;;;;;;;14.05;8.52;;;15.10;74.70;;;;;;5053174;28;20103;-87
2023/05/14 01:36:39;;;;;;;12.40;8.35;;;15.10;74.90;;;;;;5052433;28;20108;-85
2023/05/14 01:39:08;;;;;;;10.98;7.82;;;15.10;75.00;;;;;;5068965;28;20029;-88
2023/05/14 01:41:36;;;;;;;16.10;9.10;;;15.00;75.00;;;;;;5052799;28;20029;-88
2023/05/14 01:44:02;;;;;;;13.07;9.10;;;15.00;75.10;;;;;;5051966;28;20373;-86
2023/05/14 01:46:32;;;;;;;16.08;8.38;;;15.00;75.40;;;;;;5051943;28;20033;-87
2023/05/14 01:48:58;;;;;;;16.17;8.45;;;15.00;75.60;;;;;;5053293;28;20120;-85
2023/05/14 01:51:24;;;;;;;16.15;9.52;;;14.90;75.80;;;;;;5035277;28;20033;-86
2023/05/14 01:53:50;;;;;;;12.45;8.15;;;14.90;75.80;;;;;;5052438;28;20464;-86
2023/05/14 01:56:16;;;;;;;12.45;8.35;;;14.90;75.90;;;;;;5035203;28;20025;-84
2023/05/14 01:58:42;;;;;;;14.13;9.43;;;14.80;75.90;;;;;;5051471;28;20529;-84
2023/05/14 02:01:08;;;;;;;13.05;9.10;;;14.80;76.10;;;;;;5034941;28;20112;-85
2023/05/14 02:03:33;;;;;;;12.25;8.32;;;14.80;76.90;;;;;;5051241;28;20465;-86
2023/05/14 02:05:59;;;;;;;12.82;8.73;;;14.70;76.40;;;;;;5038636;28;20060;-85
2023/05/14 02:08:25;;;;;;;12.65;8.70;;;14.70;76.50;;;;;;5056486;28;20040;-85
2023/05/14 02:10:50;;;;;;;12.93;8.95;;;14.70;76.50;;;;;;5038576;28;20025;-85
2023/05/14 02:13:16;;;;;;;13.05;9.48;;;14.60;76.80;;;;;;5056116;28;20481;-86
2023/05/14 02:15:42;;;;;;;15.73;8.80;;;14.60;76.90;;;;;;5039379;28;20116;-86
2023/05/14 02:18:07;;;;;;;14.77;8.98;;;14.60;77.30;;;;;;5039631;28;20442;-87
2023/05/14 02:20:33;;;;;;;14.32;9.40;;;14.50;77.20;;;;;;5043619;28;20032;-87
2023/05/14 02:22:58;;;;;;;20.02;11.13;;;14.50;77.50;;;;;;5058605;28;20029;-86
2023/05/14 02:25:24;;;;;;;13.85;9.68;;;14.50;77.60;;;;;;5042560;28;20024;-86
2023/05/14 02:27:50;;;;;;;16.77;9.88;;;14.40;77.70;;;;;;5039381;28;20510;-87
2023/05/14 02:30:15;;;;;;;13.63;9.00;;;14.40;77.90;;;;;;5055964;28;20027;-86
2023/05/14 02:32:41;;;;;;;15.68;9.07;;;14.30;78.00;;;;;;5057333;28;20024;-86
2023/05/14 02:35:07;;;;;;;14.50;10.32;;;14.30;78.20;;;;;;5055288;28;20427;-85
2023/05/14 02:37:33;;;;;;;17.13;10.35;;;14.20;78.20;;;;;;5022156;28;20021;-86
2023/05/14 02:39:59;;;;;;;15.55;9.48;;;14.20;78.40;;;;;;5055151;28;20342;-85
2023/05/14 02:42:25;;;;;;;17.33;10.43;;;14.10;78.60;;;;;;5054736;28;20178;-85
2023/05/14 02:44:51;;;;;;;16.42;10.90;;;14.10;79.00;;;;;;5054908;28;20380;-84
2023/05/14 02:47:17;;;;;;;16.38;10.75;;;14.00;79.00;;;;;;5054468;28;20037;-85
2023/05/14 02:49:43;;;;;;;15.13;9.85;;;13.90;79.30;;;;;;5054804;28;20033;-86
2023/05/14 02:52:08;;;;;;;17.98;10.52;;;13.90;79.40;;;;;;5055905;28;20036;-84
2023/05/14 02:54:34;;;;;;;13.50;10.20;;;13.90;79.60;;;;;;5038166;28;20021;-85
2023/05/14 02:57:00;;;;;;;16.50;11.27;;;13.80;79.80;;;;;;5055454;28;20087;-85
2023/05/14 02:59:25;;;;;;;17.35;10.15;;;13.80;80.00;;;;;;5055616;28;20021;-85
2023/05/14 03:01:51;;;;;;;15.15;10.85;;;13.70;80.20;;;;;;5054738;28;20029;-86
2023/05/14 03:04:17;;;;;;;14.63;10.70;;;13.70;80.30;;;;;;5037517;28;20024;-85
2023/05/14 03:06:43;;;;;;;15.82;10.60;;;13.60;80.50;;;;;;5054111;28;20412;-86
2023/05/14 03:09:08;;;;;;;14.38;10.25;;;13.60;80.60;;;;;;5037741;28;20380;-86
2023/05/14 03:11:34;;;;;;;15.68;10.70;;;13.50;80.80;;;;;;5054477;28;20067;-86
2023/05/14 03:14:00;;;;;;;14.75;9.55;;;13.50;81.00;;;;;;5037793;28;20032;-87
2023/05/14 03:16:26;;;;;;;14.68;10.15;;;13.40;81.10;;;;;;5053854;28;20020;-86
2023/05/14 03:18:51;;;;;;;15.90;9.82;;;13.40;81.30;;;;;;5054222;28;20406;-86
2023/05/14 03:21:17;;;;;;;16.73;11.27;;;13.40;81.60;;;;;;5054537;28;20032;-85
2023/05/14 03:23:43;;;;;;;14.77;10.43;;;13.30;81.80;;;;;;5054194;28;20020;-86
2023/05/14 03:26:08;;;;;;;21.55;11.35;;;13.30;82.50;;;;;;5070660;28;20037;-85
2023/05/14 03:28:34;;;;;;;15.05;10.95;;;13.30;82.10;;;;;;5071401;28;20029;-87
2023/05/14 03:31:00;;;;;;;17.58;11.27;;;13.20;82.20;;;;;;5054427;28;20369;-86
2023/05/14 03:33:25;;;;;;;15.05;10.85;;;13.20;82.50;;;;;;5053944;28;20068;-86
2023/05/14 03:35:54;;;;;;;17.20;11.40;;;13.10;82.60;;;;;;5053952;28;20033;-87
2023/05/14 03:38:22;;;;;;;18.35;11.63;;;13.10;82.80;;;;;;5038017;28;20025;-87
2023/05/14 03:40:47;;;;;;;18.15;11.82;;;13.10;82.90;;;;;;5054246;28;20044;-86
2023/05/14 03:43:13;;;;;;;17.95;13.05;;;13.00;83.10;;;;;;5055496;28;20115;-87
2023/05/14 03:45:39;;;;;;;21.40;11.60;;;12.90;83.30;;;;;;5054158;28;20032;-86
2023/05/14 03:48:05;;;;;;;16.55;12.45;;;12.90;83.40;;;;;;5037772;28;20480;-87
2023/05/14 03:50:30;;;;;;;16.00;12.55;;;12.90;83.60;;;;;;5054206;28;20104;-87
2023/05/14 03:52:56;;;;;;;18.17;12.95;;;12.90;83.80;;;;;;5037285;28;20029;-85
2023/05/14 03:55:22;;;;;;;18.65;12.80;;;12.80;83.90;;;;;;5070760;28;20113;-87
2023/05/14 03:57:48;;;;;;;16.17;12.13;;;12.80;84.10;;;;;;5036939;28;20021;-87
2023/05/14 04:00:14;;;;;;;18.50;12.15;;;12.80;84.40;;;;;;5053568;28;20056;-87
2023/05/14 04:02:40;;;;;;;16.63;11.45;;;12.70;84.50;;;;;;5053877;28;20417;-88
2023/05/14 04:05:06;;;;;;;18.48;12.32;;;12.70;84.70;;;;;;5054821;28;20033;-87
2023/05/14 04:07:31;;;;;;;20.25;12.63;;;12.60;84.90;;;;;;5055199;28;20496;-88
2023/05/14 04:09:58;;;;;;;17.30;12.67;;;12.60;85.10;;;;;;5037573;28;20492;-88
2023/05/14 04:12:25;;;;;;;19.08;12.20;;;12.50;85.20;;;;;;5055297;28;20020;-88
2023/05/14 04:14:51;;;;;;;20.75;12.82;;;12.50;85.40;;;;;;5054154;28;20039;-89
2023/05/14 04:17:16;;;;;;;16.17;12.93;;;12.50;85.60;;;;;;5037666;28;20017;-88
2023/05/14 04:19:42;;;;;;;17.00;12.13;;;12.40;85.70;;;;;;5053264;28;20048;-86
2023/05/14 04:22:08;;;;;;;18.83;12.38;;;12.40;86.10;;;;;;5036467;28;20025;-85
2023/05/14 04:24:34;;;;;;;20.57;13.17;;;12.40;86.30;;;;;;5035766;28;20079;-85
2023/05/14 04:26:59;;;;;;;19.73;12.65;;;12.40;86.50;;;;;;5052116;28;20041;-85
2023/05/14 04:29:25;;;;;;;22.57;13.83;;;12.40;86.60;;;;;;5052958;28;20104;-85
2023/05/14 04:31:51;;;;;;;21.08;13.57;;;12.40;86.80;;;;;;5052683;28;20112;-85
2023/05/14 04:34:16;;;;;;;20.73;13.33;;;12.30;86.90;;;;;;5052173;28;20060;-85
2023/05/14 04:36:42;;;;;;;20.43;13.30;;;12.30;87.80;;;;;;5052577;28;20422;-87
2023/05/14 04:39:11;;;;;;;16.73;12.18;;;12.30;87.30;;;;;;5053953;28;20040;-85
2023/05/14 04:41:37;;;;;;;17.42;12.68;;;12.30;87.50;;;;;;5036573;28;20040;-85
2023/05/14 04:44:03;;;;;;;25.97;13.53;;;12.30;87.50;;;;;;5054843;28;20021;-85
2023/05/14 04:46:29;;;;;;;16.90;12.43;;;12.30;87.80;;;;;;5056442;28;20055;-86
2023/05/14 04:48:55;;;;;;;17.10;12.77;;;12.30;87.90;;;;;;5037175;28;20346;-86
2023/05/14 04:51:21;;;;;;;18.03;12.80;;;12.30;88.20;;;;;;5053232;28;20095;-86
2023/05/14 04:53:47;;;;;;;21.43;13.23;;;12.30;88.30;;;;;;5052777;28;20063;-85
2023/05/14 04:56:13;;;;;;;17.90;11.97;;;12.30;88.50;;;;;;5036411;28;20388;-86
2023/05/14 04:58:38;;;;;;;20.77;13.95;;;12.20;88.70;;;;;;5052651;28;20025;-85
2023/05/14 05:01:08;;;;;;;18.77;12.32;;;12.30;89.20;;;;;;5052318;28;20108;-85
2023/05/14 05:03:33;;;;;;;21.13;13.02;;;12.30;89.20;;;;;;5036121;28;20091;-85
2023/05/14 05:05:59;;;;;;;19.10;13.23;;;12.40;89.40;;;;;;5038868;28;20049;-86
2023/05/14 05:08:25;;;;;;;17.35;12.88;;;12.40;89.50;;;;;;5036686;28;20016;-85
2023/05/14 05:10:51;;;;;;;17.83;12.27;;;12.50;89.60;;;;;;5048051;28;20028;-85
2023/05/14 05:13:16;;;;;;;17.48;12.25;;;12.50;89.70;;;;;;5046957;28;20021;-85
2023/05/14 05:15:42;;;;;;;19.88;12.07;;;12.60;90.20;;;;;;5063966;28;20404;-87
2023/05/14 05:18:08;;;;;;;19.55;13.23;;;12.60;90.10;;;;;;5031823;28;20060;-86
2023/05/14 05:20:34;;;;;;;19.98;12.75;;;12.70;90.10;;;;;;5014156;28;20053;-84
2023/05/14 05:23:00;;;;;;;17.60;11.50;;;12.70;90.30;;;;;;5032357;28;20028;-87
2023/05/14 05:25:26;;;;;;;18.85;12.35;;;12.80;90.30;;;;;;5034049;28;20037;-87
2023/05/14 05:27:51;;;;;;;17.50;11.70;;;12.80;90.30;;;;;;5016058;28;20025;-87
2023/05/14 05:30:17;;;;;;;15.95;12.18;;;12.90;90.40;;;;;;5033090;28;20347;-86
2023/05/14 05:32:43;;;;;;;19.15;12.27;;;12.90;90.40;;;;;;5033524;28;20024;-85
2023/05/14 05:35:09;;;;;;;15.02;11.02;;;12.90;90.40;;;;;;5031447;28;20093;-83
2023/05/14 05:37:34;;;;;;;17.73;12.00;;;13.00;90.50;;;;;;5031773;28;20040;-84
2023/05/14 05:40:00;;;;;;;22.42;11.30;;;13.00;90.60;;;;;;5035165;28;20021;-84
2023/05/14 05:42:26;;;;;;;16.92;11.02;;;13.10;90.60;;;;;;5037113;28;20381;-82
2023/05/14 05:44:51;;;;;;;16.20;11.93;;;13.10;90.60;;;;;;5035799;28;20036;-86
2023/05/14 05:47:17;;;;;;;20.65;11.75;;;13.20;90.70;;;;;;5035706;28;20088;-84
2023/05/14 05:49:42;;;;;;;17.15;10.00;;;13.20;90.60;;;;;;5035598;28;20469;-84
2023/05/14 05:52:09;;;;;;;18.75;11.48;;;13.30;90.70;;;;;;5018911;28;20057;-84
2023/05/14 05:54:34;;;;;;;18.73;12.27;;;13.30;90.80;;;;;;5035741;28;20021;-84
2023/05/14 05:57:00;;;;;;;16.13;11.40;;;13.30;90.80;;;;;;5035674;28;20017;-86
2023/05/14 05:59:25;;;;;;;20.20;12.27;;;13.40;90.80;;;;;;5019329;28;20048;-84
2023/05/14 06:01:51;;;;;;;18.58;11.65;;;13.40;90.90;;;;;;5035279;28;20029;-85
2023/05/14 06:04:17;;;;;;;17.80;11.73;;;13.40;90.90;;;;;;5018903;28;20017;-85
2023/05/14 06:06:43;;;;;;;19.67;12.02;;;13.50;90.80;;;;;;5036430;28;20061;-84
2023/05/14 06:09:08;;;;;;;17.33;11.18;;;13.50;90.90;;;;;;5036788;28;20045;-84
2023/05/14 06:11:34;;;;;;;19.02;12.18;;;13.60;91.00;;;;;;5036727;28;20022;-85
2023/05/14 06:14:00;;;;;;;16.70;11.50;;;13.50;90.90;;;;;;5035491;28;20021;-85
2023/05/14 06:16:26;;;;;;;20.63;12.63;;;13.60;91.00;;;;;;5048450;28;20319;-86
2023/05/14 06:18:53;;;;;;;17.27;11.65;;;13.60;91.10;;;;;;5054918;28;20021;-84
2023/05/14 06:21:18;;;;;;;16.08;11.35;;;13.60;91.00;;;;;;5055317;28;20029;-84
2023/05/14 06:23:44;;;;;;;18.80;12.07;;;13.70;91.10;;;;;;5038509;28;20471;-86
2023/05/14 06:26:10;;;;;;;19.70;11.60;;;13.80;91.20;;;;;;5055424;28;20437;-85
2023/05/14 06:28:35;;;;;;;16.50;11.60;;;13.90;91.20;;;;;;5039423;28;20025;-85
2023/05/14 06:31:01;;;;;;;16.77;11.07;;;14.00;91.20;;;;;;5056038;28;20029;-87
2023/05/14 06:33:30;;;;;;;15.35;10.82;;;14.10;91.20;;;;;;5056878;28;20032;-88
2023/05/14 06:36:04;;;;;;;14.55;10.52;;;14.20;91.20;;;;;;5039106;28;20040;-86
2023/05/14 06:38:30;;;;;;;13.60;9.52;;;14.20;91.10;;;;;;5056970;28;20091;-87
2023/05/14 06:40:56;;;;;;;14.35;9.40;;;14.30;91.00;;;;;;5058079;28;20453;-88
2023/05/14 06:43:21;;;;;;;15.07;9.60;;;14.40;91.00;;;;;;5060503;28;20056;-89
2023/05/14 06:45:48;;;;;;;16.02;10.48;;;14.50;90.90;;;;;;5064183;28;20085;-87
2023/05/14 06:48:17;;;;;;;14.75;9.70;;;14.50;90.80;;;;;;5062534;28;20088;-88
2023/05/14 06:50:43;;;;;;;13.80;8.93;;;14.50;90.80;;;;;;5039051;28;20052;-86
2023/05/14 06:53:09;;;;;;;13.40;9.00;;;14.60;90.80;;;;;;5056331;28;20021;-87
2023/05/14 06:55:35;;;;;;;13.63;8.73;;;14.70;90.70;;;;;;5056686;28;20025;-87
2023/05/14 06:58:00;;;;;;;13.63;9.60;;;14.70;90.70;;;;;;5038968;28;20029;-87
2023/05/14 07:00:26;;;;;;;13.02;7.82;;;14.80;90.70;;;;;;5050885;28;21270;-88
2023/05/14 07:02:52;;;;;;;17.30;8.40;;;14.80;90.60;;;;;;5051551;28;20028;-88
2023/05/14 07:05:18;;;;;;;11.38;8.32;;;14.90;90.60;;;;;;5055334;28;20025;-86
2023/05/14 07:07:44;;;;;;;14.88;9.32;;;15.00;90.60;;;;;;5057900;28;20139;-86
2023/05/14 07:10:09;;;;;;;14.18;8.20;;;15.10;90.60;;;;;;5062299;28;20027;-87
2023/05/14 07:12:35;;;;;;;18.92;9.45;;;15.20;90.50;;;;;;5055206;28;20447;-87
2023/05/14 07:15:01;;;;;;;14.30;9.35;;;15.20;90.60;;;;;;5039404;28;20036;-87
2023/05/14 07:17:26;;;;;;;11.77;8.52;;;15.30;90.60;;;;;;5022445;28;20049;-87
2023/05/14 07:19:54;;;;;;;15.20;9.02;;;15.40;90.50;;;;;;5067602;28;20025;-88
2023/05/14 07:22:20;;;;;;;14.15;9.30;;;15.40;90.50;;;;;;5038521;28;20033;-87
2023/05/14 07:24:46;;;;;;;16.73;9.90;;;15.40;90.50;;;;;;5055703;28;20021;-87
2023/05/14 07:27:11;;;;;;;12.63;8.43;;;15.50;90.60;;;;;;5055586;28;20053;-89
2023/05/14 07:29:37;;;;;;;16.60;9.68;;;15.50;90.60;;;;;;5054665;28;20114;-87
2023/05/14 07:32:03;;;;;;;14.50;9.00;;;15.60;90.50;;;;;;5034835;28;20017;-89
2023/05/14 07:34:29;;;;;;;12.85;8.13;;;15.60;90.50;;;;;;5029695;28;20025;-88
2023/05/14 07:36:55;;;;;;;17.65;8.52;;;15.70;90.40;;;;;;5022606;28;20063;-88
2023/05/14 07:39:21;;;;;;;14.23;7.60;;;15.80;90.30;;;;;;5052374;28;20029;-89
2023/05/14 07:41:46;;;;;;;14.55;8.13;;;15.90;90.20;;;;;;5055618;28;20027;-88
2023/05/14 07:44:12;;;;;;;10.95;6.88;;;16.00;90.10;;;;;;5053518;28;20149;-88
2023/05/14 07:46:38;;;;;;;10.23;6.10;;;16.10;90.10;;;;;;5034338;28;20040;-87
2023/05/14 07:49:03;;;;;;;12.30;6.75;;;16.10;89.90;;;;;;5054156;28;20033;-87
2023/05/14 07:51:32;;;;;;;12.32;6.55;;;16.20;89.40;;;;;;5034215;28;20022;-88
2023/05/14 07:53:57;;;;;;;13.18;6.95;;;16.30;89.00;;;;;;5048360;28;20020;-88
2023/05/14 07:56:23;;;;;;;12.00;5.90;;;16.40;88.70;;;;;;5053192;28;20494;-87
2023/05/14 07:58:50;;;;;;;8.18;6.20;;;16.40;88.20;;;;;;5037343;28;20416;-87
2023/05/14 08:01:16;;;;;;;11.57;5.75;;;16.50;87.50;;;;;;5033227;28;20067;-88
2023/05/14 08:03:41;;;;;;;8.88;5.85;;;16.60;87.00;;;;;;5039395;28;20029;-88
2023/05/14 08:06:07;;;;;;;10.85;5.57;;;16.60;86.80;;;;;;5043788;28;20484;-88
2023/05/14 08:08:33;;;;;;;10.35;5.95;;;16.70;86.70;;;;;;5031377;28;20053;-86
2023/05/14 08:10:59;;;;;;;9.40;5.28;;;16.70;86.40;;;;;;5034159;28;20340;-88
2023/05/14 08:13:25;;;;;;;8.20;5.55;;;16.80;86.20;;;;;;5055119;28;20017;-87
2023/05/14 08:15:51;;;;;;;11.48;5.53;;;16.90;85.60;;;;;;5036365;28;20029;-81
2023/05/14 08:18:16;;;;;;;10.57;5.20;;;17.00;85.40;;;;;;5042941;28;20035;-84
2023/05/14 08:20:42;;;;;;;8.85;4.85;;;17.10;85.20;;;;;;5038618;28;20032;-84
2023/05/14 08:23:08;;;;;;;7.50;4.75;;;17.10;84.80;;;;;;5052808;28;20047;-83
2023/05/14 08:25:33;;;;;;;9.02;5.00;;;17.10;84.50;;;;;;5052248;28;20035;-84
2023/05/14 08:28:00;;;;;;;10.00;5.40;;;17.20;84.30;;;;;;5035969;28;20029;-83
2023/05/14 08:30:26;;;;;;;7.50;4.80;;;17.30;84.00;;;;;;5035987;28;20460;-83
2023/05/14 08:32:52;;;;;;;9.02;4.30;;;17.30;83.60;;;;;;5052579;28;20024;-83
2023/05/14 08:35:20;;;;;;;7.22;4.35;;;17.40;83.20;;;;;;5052303;28;20033;-82
2023/05/14 08:37:46;;;;;;;12.43;4.60;;;17.50;83.00;;;;;;5052318;28;20034;-82
2023/05/14 08:40:12;;;;;;;7.28;4.78;;;17.70;83.20;;;;;;5052276;28;20043;-82
2023/05/14 08:42:42;;;;;;;9.60;4.15;;;17.80;82.10;;;;;;5052630;28;20029;-81
2023/05/14 08:45:18;;;;;;;6.75;4.07;;;17.90;81.60;;;;;;5056940;28;20364;-84
2023/05/14 08:47:51;;;;;;;5.93;3.50;;;18.00;81.40;;;;;;5072315;28;20043;-81
2023/05/14 08:50:18;;;;;;;6.47;3.93;;;18.20;81.10;;;;;;5051312;28;20029;-81
2023/05/14 08:52:44;;;;;;;8.00;3.72;;;18.30;80.80;;;;;;5055185;28;20139;-82
2023/05/14 08:55:11;;;;;;;6.85;3.60;;;18.50;80.20;;;;;;5051659;28;20064;-81
2023/05/14 08:57:37;;;;;;;6.78;3.33;;;18.60;78.50;;;;;;5030867;28;20025;-83
2023/05/14 09:00:07;;;;;;;6.03;2.53;;;18.70;77.60;;;;;;5036167;28;20144;-81
2023/05/14 09:02:33;;;;;;;5.53;2.60;;;18.80;76.60;;;;;;5035965;28;20111;-82
2023/05/14 09:05:00;;;;;;;6.05;2.53;;;18.80;74.70;;;;;;5053944;28;20017;-82
2023/05/14 09:07:26;;;;;;;5.15;2.90;;;18.90;73.90;;;;;;5054573;28;20051;-82
2023/05/14 09:09:52;;;;;;;10.57;2.75;;;19.00;73.30;;;;;;5045387;28;20376;-83
2023/05/14 09:12:18;;;;;;;6.63;2.75;;;19.10;73.10;;;;;;5052097;28;20033;-82
2023/05/14 09:14:44;;;;;;;9.13;2.75;;;19.20;72.40;;;;;;5058960;28;20466;-82
2023/05/14 09:17:11;;;;;;;7.05;2.78;;;19.30;71.80;;;;;;5054183;28;20100;-82
2023/05/14 09:19:40;;;;;;;6.45;2.85;;;19.40;71.20;;;;;;5053472;28;21156;-83
2023/05/14 09:22:12;;;;;;;4.80;2.53;;;19.40;70.70;;;;;;5055096;28;20028;-83
2023/05/14 09:24:38;;;;;;;4.88;2.30;;;19.50;70.20;;;;;;5054904;28;20032;-82
2023/05/14 09:27:05;;;;;;;5.22;2.67;;;19.50;70.00;;;;;;5054884;28;20112;-83
2023/05/14 09:29:31;;;;;;;6.93;2.97;;;19.60;69.10;;;;;;5039250;28;20025;-82
2023/05/14 09:31:59;;;;;;;4.75;2.42;;;19.60;68.90;;;;;;5055134;28;20032;-83
2023/05/14 09:34:32;;;;;;;5.45;2.50;;;19.70;68.70;;;;;;5053403;28;20428;-83
2023/05/14 09:36:58;;;;;;;9.17;3.17;;;19.80;68.40;;;;;;5043822;28;20078;-83
2023/05/14 09:39:25;;;;;;;9.35;2.60;;;19.90;68.10;;;;;;5043441;28;20337;-82
2023/05/14 09:41:51;;;;;;;4.18;2.30;;;20.00;68.00;;;;;;5055198;28;20056;-83
2023/05/14 09:44:18;;;;;;;7.00;2.38;;;20.10;67.90;;;;;;5053430;28;20055;-82
2023/05/14 09:46:44;;;;;;;4.30;2.20;;;20.20;67.30;;;;;;5061624;28;20044;-87
2023/05/14 09:49:10;;;;;;;5.03;2.17;;;20.30;66.80;;;;;;5074713;28;20029;-89
2023/05/14 09:51:37;;;;;;;4.32;2.10;;;20.30;66.70;;;;;;5075541;28;20027;-90
2023/05/14 09:54:04;;;;;;;5.50;2.50;;;20.30;66.50;;;;;;5074087;28;20063;-90
2023/05/14 09:56:33;;;;;;;5.82;2.30;;;20.40;66.30;;;;;;5036548;28;20029;-90
2023/05/14 09:58:59;;;;;;;4.13;1.80;;;20.40;66.20;;;;;;5071945;28;20033;-86
2023/05/14 10:01:27;;;;;;;4.30;2.20;;;20.40;65.90;;;;;;5053696;28;20013;-90
2023/05/14 10:03:53;;;;;;;6.43;2.30;;;20.50;65.60;;;;;;5034778;28;20453;-87
2023/05/14 10:06:24;;;;;;;5.72;2.05;;;20.50;65.30;;;;;;5051202;28;20083;-90
2023/05/14 10:08:55;;;;;;;4.43;1.98;;;20.60;65.20;;;;;;5053049;28;20338;-89
2023/05/14 10:11:25;;;;;;;5.22;2.72;;;20.60;64.90;;;;;;5052880;28;20025;-89
2023/05/14 10:14:04;;;;;;;6.07;2.40;;;20.70;64.70;;;;;;5053018;28;20021;-91
2023/05/14 10:16:33;;;;;;;4.05;2.38;;;20.80;64.40;;;;;;5052861;28;20013;-87
2023/05/14 10:19:10;;;;;;;4.53;2.38;;;20.80;64.50;;;;;;5053052;28;20022;-88
2023/05/14 10:21:38;;;;;;;3.85;2.20;;;20.90;64.20;;;;;;5036125;28;20023;-89
2023/05/14 10:24:05;;;;;;;5.85;2.42;;;21.00;64.30;;;;;;5046996;28;20021;-89
2023/05/14 10:26:38;;;;;;;5.75;2.35;;;21.00;64.00;;;;;;5062418;28;20037;-87
2023/05/14 10:29:05;;;;;;;3.60;2.13;;;21.10;63.90;;;;;;5065254;28;20526;-89
2023/05/14 10:31:47;;;;;;;6.78;2.30;;;21.20;63.90;;;;;;5057476;28;20045;-88
2023/05/14 10:34:42;;;;;;;6.03;2.58;;;21.40;63.30;;;;;;5055709;28;20021;-91
2023/05/14 10:37:10;;;;;;;6.45;2.25;;;21.50;63.00;;;;;;5057412;28;20024;-89
2023/05/14 10:39:44;;;;;;;5.65;2.67;;;21.60;63.00;;;;;;5056084;28;20029;-89
2023/05/14 10:42:21;;;;;;;4.43;2.00;;;21.60;62.40;;;;;;5057382;28;20021;-90
2023/05/14 10:45:06;;;;;;;3.90;2.20;;;21.70;62.20;;;;;;5056228;28;20044;-88
2023/05/14 10:47:32;;;;;;;4.50;2.30;;;21.70;61.90;;;;;;5057394;28;20032;-90
2023/05/14 10:50:00;;;;;;;3.72;2.25;;;21.70;61.90;;;;;;5056614;28;20112;-89
2023/05/14 10:52:26;;;;;;;6.15;2.10;;;21.80;61.70;;;;;;5055943;28;20021;-89
2023/05/14 10:54:57;;;;;;;3.83;2.03;;;21.80;61.50;;;;;;5037444;28;20039;-90
2023/05/14 10:57:28;;;;;;;5.32;2.50;;;21.80;61.30;;;;;;5033312;28;20120;-90
2023/05/14 10:59:59;;;;;;;7.57;2.33;;;21.90;61.30;;;;;;5035967;28;20026;-90
2023/05/14 11:02:27;;;;;;;5.00;2.15;;;21.90;61.30;;;;;;5036186;28;20057;-89
2023/05/14 11:05:05;;;;;;;7.72;2.50;;;21.90;61.30;;;;;;5040100;28;20105;-89
2023/05/14 11:07:36;;;;;;;4.50;2.10;;;21.90;61.00;;;;;;5050403;28;20389;-89
2023/05/14 11:10:20;;;;;;;3.60;1.95;;;22.00;60.80;;;;;;5056642;28;20024;-89
2023/05/14 11:12:48;;;;;;;4.53;1.98;;;22.00;60.60;;;;;;5056381;28;20119;-89
2023/05/14 11:15:23;;;;;;;4.28;1.88;;;22.10;60.60;;;;;;5057140;28;20033;-90
2023/05/14 11:17:50;;;;;;;4.50;1.90;;;22.10;60.80;;;;;;5048853;28;20025;-88
2023/05/14 11:20:16;;;;;;;4.00;2.25;;;22.20;61.30;;;;;;5080432;28;20018;-90
2023/05/14 11:22:44;;;;;;;5.43;2.67;;;22.20;61.20;;;;;;5055362;28;20029;-89
2023/05/14 11:25:13;;;;;;;6.95;2.15;;;22.20;60.60;;;;;;5048902;28;20449;-86
2023/05/14 11:27:40;;;;;;;4.22;1.90;;;22.30;61.00;;;;;;5054485;28;20033;-88
2023/05/14 11:30:17;;;;;;;6.32;1.92;;;22.50;61.00;;;;;;5054245;28;20039;-87
2023/05/14 11:32:44;;;;;;;4.15;1.80;;;22.70;59.40;;;;;;5038299;28;20032;-89
2023/05/14 11:35:10;;;;;;;5.43;2.30;;;23.00;59.20;;;;;;5038187;28;20048;-89
2023/05/14 11:37:36;;;;;;;6.10;2.10;;;23.30;59.00;;;;;;5037003;28;20488;-89
2023/05/14 11:40:05;;;;;;;4.57;2.22;;;23.50;59.10;;;;;;5054195;28;20044;-90
2023/05/14 11:42:31;;;;;;;4.57;2.13;;;23.80;59.20;;;;;;5053780;28;20037;-89
2023/05/14 11:44:57;;;;;;;4.13;1.88;;;24.10;59.00;;;;;;5056929;28;20062;-88
2023/05/14 11:47:22;;;;;;;8.50;1.88;;;24.40;58.20;;;;;;5055237;28;20094;-83
2023/05/14 11:49:48;;;;;;;4.57;2.08;;;24.60;57.10;;;;;;5051267;28;20435;-89
2023/05/14 11:52:17;;;;;;;5.47;2.00;;;24.90;56.30;;;;;;5057666;28;20032;-87
2023/05/14 11:54:44;;;;;;;7.63;2.22;;;25.20;55.60;;;;;;5056542;28;20025;-90
2023/05/14 11:57:17;;;;;;;4.82;2.08;;;25.40;55.30;;;;;;5056044;28;20035;-90
2023/05/14 11:59:44;;;;;;;4.20;2.05;;;25.60;55.00;;;;;;5056644;28;20032;-92
2023/05/14 12:02:11;;;;;;;3.97;2.05;;;25.80;55.00;;;;;;5056035;28;20032;-90
2023/05/14 12:04:38;;;;;;;7.40;1.77;;;25.90;54.40;;;;;;5055059;28;20033;-91
2023/05/14 12:07:13;;;;;;;4.93;1.75;;;26.00;54.10;;;;;;5055062;28;20076;-90
2023/05/14 12:09:48;;;;;;;4.63;1.83;;;25.90;53.70;;;;;;5055727;28;20021;-89
2023/05/14 12:12:15;;;;;;;7.20;1.73;;;25.90;53.70;;;;;;5056920;28;20025;-89
2023/05/14 12:14:42;;;;;;;4.10;1.50;;;25.80;53.30;;;;;;5055080;28;20018;-90
2023/05/14 12:17:12;;;;;;;6.68;1.95;;;25.70;52.90;;;;;;5038842;28;20029;-89
2023/05/14 12:19:43;;;;;;;4.53;2.30;;;25.70;52.80;;;;;;5056021;28;20060;-89
2023/05/14 12:22:10;;;;;;;7.93;2.67;;;25.60;53.30;;;;;;5056511;28;20461;-90
2023/05/14 12:24:36;;;;;;;6.57;3.00;;;25.50;53.60;;;;;;5056116;28;20104;-89
2023/05/14 12:27:02;;;;;;;5.85;2.35;;;25.20;53.90;;;;;;5056220;28;20053;-90
2023/05/14 12:29:28;;;;;;;6.63;2.40;;;25.10;54.30;;;;;;5057343;28;20028;-88
2023/05/14 12:31:58;;;;;;;6.80;2.80;;;24.80;54.40;;;;;;5058008;28;20029;-91
2023/05/14 12:34:23;;;;;;;4.47;2.40;;;24.60;54.50;;;;;;5068256;28;20043;-88
2023/05/14 12:36:49;;;;;;;5.90;2.75;;;24.50;54.70;;;;;;5067006;28;20025;-90
2023/05/14 12:39:15;;;;;;;5.68;2.53;;;24.20;54.70;;;;;;5048179;28;20036;-90